sensor_id;sensor_type;location;lat;lon;timestamp;temperature;humidity
65378;SHT31;51982;51.042;13.806;2023-03-11T00:01:05;8.22;78.82
65378;SHT31;51982;51.042;13.806;2023-03-11T00:03:31;8.12;77.81
65378;SHT31;51982;51.042;13.806;2023-03-11T00:05:58;8.13;77.59
65378;SHT31;51982;51.042;13.806;2023-03-11T00:08:24;7.96;77.06
65378;SHT31;51982;51.042;13.806;2023-03-11T00:10:50;7.95;76.95
65378;SHT31;51982;51.042;13.806;2023-03-11T00:13:16;7.71;77.10
65378;SHT31;51982;51.042;13.806;2023-03-11T00:15:42;7.55;78.02
65378;SHT31;51982;51.042;13.806;2023-03-11T00:18:08;7.81;78.23
65378;SHT31;51982;51.042;13.806;2023-03-11T00:20:34;7.89;78.26
65378;SHT31;51982;51.042;13.806;2023-03-11T00:23:00;7.65;77.83
65378;SHT31;51982;51.042;13.806;2023-03-11T00:25:26;7.79;78.55
65378;SHT31;51982;51.042;13.806;2023-03-11T00:27:52;7.72;78.22
65378;SHT31;51982;51.042;13.806;2023-03-11T00:30:18;7.47;79.54
65378;SHT31;51982;51.042;13.806;2023-03-11T00:32:43;7.11;79.78
65378;SHT31;51982;51.042;13.806;2023-03-11T00:35:13;7.13;80.35
65378;SHT31;51982;51.042;13.806;2023-03-11T00:37:38;7.10;80.71
65378;SHT31;51982;51.042;13.806;2023-03-11T00:40:04;7.07;82.54
65378;SHT31;51982;51.042;13.806;2023-03-11T00:42:32;7.17;82.24
65378;SHT31;51982;51.042;13.806;2023-03-11T00:44:58;7.11;81.61
65378;SHT31;51982;51.042;13.806;2023-03-11T00:47:23;6.99;81.30
65378;SHT31;51982;51.042;13.806;2023-03-11T00:49:48;7.13;81.56
65378;SHT31;51982;51.042;13.806;2023-03-11T00:52:13;7.08;81.30
65378;SHT31;51982;51.042;13.806;2023-03-11T00:54:38;6.86;81.38
65378;SHT31;51982;51.042;13.806;2023-03-11T00:57:03;6.85;83.81
65378;SHT31;51982;51.042;13.806;2023-03-11T00:59:32;6.86;84.03
65378;SHT31;51982;51.042;13.806;2023-03-11T01:01:58;6.87;84.19
65378;SHT31;51982;51.042;13.806;2023-03-11T01:04:23;6.68;82.86
65378;SHT31;51982;51.042;13.806;2023-03-11T01:06:48;6.45;82.94
65378;SHT31;51982;51.042;13.806;2023-03-11T01:09:13;6.65;83.14
65378;SHT31;51982;51.042;13.806;2023-03-11T01:11:38;6.32;82.39
65378;SHT31;51982;51.042;13.806;2023-03-11T01:14:03;6.34;82.82
65378;SHT31;51982;51.042;13.806;2023-03-11T01:16:29;5.91;82.20
65378;SHT31;51982;51.042;13.806;2023-03-11T01:18:54;6.34;83.54
65378;SHT31;51982;51.042;13.806;2023-03-11T01:21:20;6.34;82.42
65378;SHT31;51982;51.042;13.806;2023-03-11T01:23:45;6.25;82.13
65378;SHT31;51982;51.042;13.806;2023-03-11T01:26:10;5.94;81.00
65378;SHT31;51982;51.042;13.806;2023-03-11T01:28:35;6.08;80.80
65378;SHT31;51982;51.042;13.806;2023-03-11T01:31:01;6.18;80.68
65378;SHT31;51982;51.042;13.806;2023-03-11T01:33:26;6.07;80.23
65378;SHT31;51982;51.042;13.806;2023-03-11T01:35:53;6.17;80.35
65378;SHT31;51982;51.042;13.806;2023-03-11T01:38:18;6.15;80.96
65378;SHT31;51982;51.042;13.806;2023-03-11T01:40:44;6.26;80.76
65378;SHT31;51982;51.042;13.806;2023-03-11T01:48:19;6.11;79.71
65378;SHT31;51982;51.042;13.806;2023-03-11T01:50:46;6.01;79.96
65378;SHT31;51982;51.042;13.806;2023-03-11T01:53:13;6.07;79.82
65378;SHT31;51982;51.042;13.806;2023-03-11T01:55:39;5.95;79.71
65378;SHT31;51982;51.042;13.806;2023-03-11T01:58:06;6.07;79.50
65378;SHT31;51982;51.042;13.806;2023-03-11T02:00:32;6.02;79.05
65378;SHT31;51982;51.042;13.806;2023-03-11T02:02:58;6.00;79.32
65378;SHT31;51982;51.042;13.806;2023-03-11T02:05:25;6.00;79.07
65378;SHT31;51982;51.042;13.806;2023-03-11T02:07:50;6.07;79.38
65378;SHT31;51982;51.042;13.806;2023-03-11T02:10:17;5.89;79.40
65378;SHT31;51982;51.042;13.806;2023-03-11T02:12:42;5.89;79.62
65378;SHT31;51982;51.042;13.806;2023-03-11T02:15:09;5.83;79.28
65378;SHT31;51982;51.042;13.806;2023-03-11T02:17:35;5.89;79.46
65378;SHT31;51982;51.042;13.806;2023-03-11T02:22:26;5.97;78.90
65378;SHT31;51982;51.042;13.806;2023-03-11T02:27:19;5.84;79.00
65378;SHT31;51982;51.042;13.806;2023-03-11T02:29:45;5.80;79.24
65378;SHT31;51982;51.042;13.806;2023-03-11T02:32:13;5.83;79.27
65378;SHT31;51982;51.042;13.806;2023-03-11T02:34:39;5.80;79.82
65378;SHT31;51982;51.042;13.806;2023-03-11T02:37:05;5.69;79.62
65378;SHT31;51982;51.042;13.806;2023-03-11T02:39:35;5.43;80.02
65378;SHT31;51982;51.042;13.806;2023-03-11T02:42:01;5.28;80.16
65378;SHT31;51982;51.042;13.806;2023-03-11T02:44:28;5.51;80.47
65378;SHT31;51982;51.042;13.806;2023-03-11T02:46:53;5.39;79.81
65378;SHT31;51982;51.042;13.806;2023-03-11T02:49:19;5.42;79.99
65378;SHT31;51982;51.042;13.806;2023-03-11T02:51:44;5.33;79.60
65378;SHT31;51982;51.042;13.806;2023-03-11T02:54:10;5.46;79.69
65378;SHT31;51982;51.042;13.806;2023-03-11T02:56:35;5.53;79.77
65378;SHT31;51982;51.042;13.806;2023-03-11T02:59:00;5.43;79.82
65378;SHT31;51982;51.042;13.806;2023-03-11T03:01:25;5.49;80.21
65378;SHT31;51982;51.042;13.806;2023-03-11T03:03:51;5.30;81.57
65378;SHT31;51982;51.042;13.806;2023-03-11T03:06:16;5.44;82.72
65378;SHT31;51982;51.042;13.806;2023-03-11T03:08:41;5.50;82.36
65378;SHT31;51982;51.042;13.806;2023-03-11T03:11:06;5.25;83.01
65378;SHT31;51982;51.042;13.806;2023-03-11T03:13:31;5.25;83.68
65378;SHT31;51982;51.042;13.806;2023-03-11T03:15:57;5.15;84.70
65378;SHT31;51982;51.042;13.806;2023-03-11T03:18:22;5.00;84.90
65378;SHT31;51982;51.042;13.806;2023-03-11T03:20:47;5.00;85.39
65378;SHT31;51982;51.042;13.806;2023-03-11T03:23:13;4.98;85.64
65378;SHT31;51982;51.042;13.806;2023-03-11T03:25:41;4.91;86.23
65378;SHT31;51982;51.042;13.806;2023-03-11T03:28:06;4.79;86.11
65378;SHT31;51982;51.042;13.806;2023-03-11T03:30:31;4.65;86.54
65378;SHT31;51982;51.042;13.806;2023-03-11T03:32:56;4.67;87.00
65378;SHT31;51982;51.042;13.806;2023-03-11T03:35:21;4.64;87.93
65378;SHT31;51982;51.042;13.806;2023-03-11T03:37:46;4.57;87.88
65378;SHT31;51982;51.042;13.806;2023-03-11T03:40:12;4.58;88.59
65378;SHT31;51982;51.042;13.806;2023-03-11T03:42:37;4.41;88.82
65378;SHT31;51982;51.042;13.806;2023-03-11T03:45:04;4.14;89.14
65378;SHT31;51982;51.042;13.806;2023-03-11T03:47:31;4.37;90.38
65378;SHT31;51982;51.042;13.806;2023-03-11T03:49:56;4.32;90.02
65378;SHT31;51982;51.042;13.806;2023-03-11T03:52:21;4.33;90.27
65378;SHT31;51982;51.042;13.806;2023-03-11T03:54:46;4.29;90.71
65378;SHT31;51982;51.042;13.806;2023-03-11T03:57:11;4.26;90.41
65378;SHT31;51982;51.042;13.806;2023-03-11T03:59:37;4.44;90.84
65378;SHT31;51982;51.042;13.806;2023-03-11T04:02:02;4.29;90.67
65378;SHT31;51982;51.042;13.806;2023-03-11T04:04:27;3.97;90.01
65378;SHT31;51982;51.042;13.806;2023-03-11T04:06:52;4.16;90.67
65378;SHT31;51982;51.042;13.806;2023-03-11T04:09:18;4.03;90.21
65378;SHT31;51982;51.042;13.806;2023-03-11T04:11:43;4.10;90.74
65378;SHT31;51982;51.042;13.806;2023-03-11T04:14:08;4.07;90.30
65378;SHT31;51982;51.042;13.806;2023-03-11T04:16:33;4.09;90.22
65378;SHT31;51982;51.042;13.806;2023-03-11T04:18:59;4.17;90.59
65378;SHT31;51982;51.042;13.806;2023-03-11T04:21:24;3.87;90.92
65378;SHT31;51982;51.042;13.806;2023-03-11T04:23:49;3.94;91.38
65378;SHT31;51982;51.042;13.806;2023-03-11T04:26:14;3.96;93.00
65378;SHT31;51982;51.042;13.806;2023-03-11T04:28:39;3.68;93.73
65378;SHT31;51982;51.042;13.806;2023-03-11T04:31:04;3.82;92.93
65378;SHT31;51982;51.042;13.806;2023-03-11T04:33:30;3.82;92.26
65378;SHT31;51982;51.042;13.806;2023-03-11T04:35:55;3.59;92.08
65378;SHT31;51982;51.042;13.806;2023-03-11T04:38:20;3.68;92.07
65378;SHT31;51982;51.042;13.806;2023-03-11T04:40:45;3.71;92.24
65378;SHT31;51982;51.042;13.806;2023-03-11T04:43:11;3.51;92.14
65378;SHT31;51982;51.042;13.806;2023-03-11T04:45:39;3.62;92.77
65378;SHT31;51982;51.042;13.806;2023-03-11T04:48:04;3.59;92.67
65378;SHT31;51982;51.042;13.806;2023-03-11T04:50:30;3.78;93.33
65378;SHT31;51982;51.042;13.806;2023-03-11T04:52:55;3.83;93.12
65378;SHT31;51982;51.042;13.806;2023-03-11T04:55:21;3.68;92.29
65378;SHT31;51982;51.042;13.806;2023-03-11T04:57:46;3.61;92.53
65378;SHT31;51982;51.042;13.806;2023-03-11T05:00:11;3.73;92.40
65378;SHT31;51982;51.042;13.806;2023-03-11T05:02:37;3.78;92.01
65378;SHT31;51982;51.042;13.806;2023-03-11T05:05:03;3.76;91.93
65378;SHT31;51982;51.042;13.806;2023-03-11T05:07:28;3.65;91.91
65378;SHT31;51982;51.042;13.806;2023-03-11T05:09:53;3.51;91.74
65378;SHT31;51982;51.042;13.806;2023-03-11T05:12:19;3.61;91.91
65378;SHT31;51982;51.042;13.806;2023-03-11T05:14:44;3.48;91.77
65378;SHT31;51982;51.042;13.806;2023-03-11T05:17:09;3.55;91.73
65378;SHT31;51982;51.042;13.806;2023-03-11T05:19:36;3.52;90.93
65378;SHT31;51982;51.042;13.806;2023-03-11T05:22:02;3.42;90.98
65378;SHT31;51982;51.042;13.806;2023-03-11T05:24:27;3.52;90.90
65378;SHT31;51982;51.042;13.806;2023-03-11T05:26:53;3.46;90.92
65378;SHT31;51982;51.042;13.806;2023-03-11T05:29:18;3.56;90.60
65378;SHT31;51982;51.042;13.806;2023-03-11T05:31:44;3.63;90.42
65378;SHT31;51982;51.042;13.806;2023-03-11T05:34:09;3.68;90.28
65378;SHT31;51982;51.042;13.806;2023-03-11T05:36:34;3.62;90.31
65378;SHT31;51982;51.042;13.806;2023-03-11T05:38:59;3.54;90.18
65378;SHT31;51982;51.042;13.806;2023-03-11T05:41:25;3.55;89.64
65378;SHT31;51982;51.042;13.806;2023-03-11T05:43:50;3.71;89.17
65378;SHT31;51982;51.042;13.806;2023-03-11T05:46:15;3.51;89.39
65378;SHT31;51982;51.042;13.806;2023-03-11T05:48:40;3.63;89.03
65378;SHT31;51982;51.042;13.806;2023-03-11T05:51:08;3.45;88.25
65378;SHT31;51982;51.042;13.806;2023-03-11T05:53:34;3.52;88.27
65378;SHT31;51982;51.042;13.806;2023-03-11T05:55:59;3.62;88.33
65378;SHT31;51982;51.042;13.806;2023-03-11T05:58:25;3.69;88.56
65378;SHT31;51982;51.042;13.806;2023-03-11T06:00:51;3.75;87.66
65378;SHT31;51982;51.042;13.806;2023-03-11T06:03:16;3.76;87.49
65378;SHT31;51982;51.042;13.806;2023-03-11T06:05:45;3.73;86.76
65378;SHT31;51982;51.042;13.806;2023-03-11T06:08:10;3.66;86.70
65378;SHT31;51982;51.042;13.806;2023-03-11T06:10:35;3.76;86.40
65378;SHT31;51982;51.042;13.806;2023-03-11T06:13:00;3.73;85.91
65378;SHT31;51982;51.042;13.806;2023-03-11T06:15:25;3.61;85.09
65378;SHT31;51982;51.042;13.806;2023-03-11T06:17:51;3.78;84.82
65378;SHT31;51982;51.042;13.806;2023-03-11T06:20:16;3.71;84.16
65378;SHT31;51982;51.042;13.806;2023-03-11T06:22:41;3.76;83.81
65378;SHT31;51982;51.042;13.806;2023-03-11T06:25:06;3.89;83.79
65378;SHT31;51982;51.042;13.806;2023-03-11T06:27:32;3.96;83.63
65378;SHT31;51982;51.042;13.806;2023-03-11T06:29:57;3.93;83.47
65378;SHT31;51982;51.042;13.806;2023-03-11T06:32:22;3.85;83.45
65378;SHT31;51982;51.042;13.806;2023-03-11T06:34:51;3.99;83.77
65378;SHT31;51982;51.042;13.806;2023-03-11T06:37:17;3.69;82.75
65378;SHT31;51982;51.042;13.806;2023-03-11T06:39:42;3.85;83.35
65378;SHT31;51982;51.042;13.806;2023-03-11T06:42:11;3.79;83.04
65378;SHT31;51982;51.042;13.806;2023-03-11T06:44:36;3.83;82.94
65378;SHT31;51982;51.042;13.806;2023-03-11T06:47:01;3.87;83.06
65378;SHT31;51982;51.042;13.806;2023-03-11T06:49:26;4.06;83.28
65378;SHT31;51982;51.042;13.806;2023-03-11T06:51:52;4.03;82.42
65378;SHT31;51982;51.042;13.806;2023-03-11T06:54:17;4.14;82.66
65378;SHT31;51982;51.042;13.806;2023-03-11T06:56:42;4.26;82.76
65378;SHT31;51982;51.042;13.806;2023-03-11T06:59:07;4.02;82.10
65378;SHT31;51982;51.042;13.806;2023-03-11T07:01:32;3.83;82.14
65378;SHT31;51982;51.042;13.806;2023-03-11T07:03:57;3.75;82.23
65378;SHT31;51982;51.042;13.806;2023-03-11T07:06:24;3.75;82.51
65378;SHT31;51982;51.042;13.806;2023-03-11T07:08:49;3.99;82.80
65378;SHT31;51982;51.042;13.806;2023-03-11T07:11:17;4.07;82.43
65378;SHT31;51982;51.042;13.806;2023-03-11T07:13:48;4.02;82.36
65378;SHT31;51982;51.042;13.806;2023-03-11T07:16:18;4.06;82.47
65378;SHT31;51982;51.042;13.806;2023-03-11T07:18:45;3.94;81.96
65378;SHT31;51982;51.042;13.806;2023-03-11T07:21:11;4.03;81.89
65378;SHT31;51982;51.042;13.806;2023-03-11T07:23:37;3.82;82.13
65378;SHT31;51982;51.042;13.806;2023-03-11T07:26:02;4.00;82.18
65378;SHT31;51982;51.042;13.806;2023-03-11T07:28:29;3.92;82.12
65378;SHT31;51982;51.042;13.806;2023-03-11T07:30:54;3.81;82.43
65378;SHT31;51982;51.042;13.806;2023-03-11T07:33:20;3.89;82.52
65378;SHT31;51982;51.042;13.806;2023-03-11T07:35:46;3.83;82.71
65378;SHT31;51982;51.042;13.806;2023-03-11T07:38:13;3.89;82.83
65378;SHT31;51982;51.042;13.806;2023-03-11T07:40:38;4.00;83.27
65378;SHT31;51982;51.042;13.806;2023-03-11T07:43:03;4.04;83.55
65378;SHT31;51982;51.042;13.806;2023-03-11T07:45:28;4.07;83.43
65378;SHT31;51982;51.042;13.806;2023-03-11T07:47:54;4.17;83.31
65378;SHT31;51982;51.042;13.806;2023-03-11T07:50:21;4.04;82.69
65378;SHT31;51982;51.042;13.806;2023-03-11T07:52:47;4.07;83.39
65378;SHT31;51982;51.042;13.806;2023-03-11T07:55:12;3.94;84.09
65378;SHT31;51982;51.042;13.806;2023-03-11T07:57:37;4.00;82.77
65378;SHT31;51982;51.042;13.806;2023-03-11T08:00:03;4.18;82.53
65378;SHT31;51982;51.042;13.806;2023-03-11T08:02:28;4.06;82.21
65378;SHT31;51982;51.042;13.806;2023-03-11T08:04:54;3.89;82.57
65378;SHT31;51982;51.042;13.806;2023-03-11T08:07:19;3.94;82.80
65378;SHT31;51982;51.042;13.806;2023-03-11T08:09:45;4.04;83.12
65378;SHT31;51982;51.042;13.806;2023-03-11T08:12:10;4.16;82.92
65378;SHT31;51982;51.042;13.806;2023-03-11T08:14:35;4.11;83.55
65378;SHT31;51982;51.042;13.806;2023-03-11T08:17:00;4.10;83.29
65378;SHT31;51982;51.042;13.806;2023-03-11T08:19:25;4.07;83.79
65378;SHT31;51982;51.042;13.806;2023-03-11T08:21:51;4.30;84.11
65378;SHT31;51982;51.042;13.806;2023-03-11T08:24:16;4.44;83.42
65378;SHT31;51982;51.042;13.806;2023-03-11T08:26:41;4.37;82.00
65378;SHT31;51982;51.042;13.806;2023-03-11T08:29:06;4.45;82.32
65378;SHT31;51982;51.042;13.806;2023-03-11T08:31:32;4.23;82.45
65378;SHT31;51982;51.042;13.806;2023-03-11T08:33:58;4.34;82.91
65378;SHT31;51982;51.042;13.806;2023-03-11T08:36:25;4.21;82.71
65378;SHT31;51982;51.042;13.806;2023-03-11T08:38:50;4.03;82.76
65378;SHT31;51982;51.042;13.806;2023-03-11T08:41:15;4.03;82.93
65378;SHT31;51982;51.042;13.806;2023-03-11T08:43:40;4.21;83.15
65378;SHT31;51982;51.042;13.806;2023-03-11T08:46:06;4.16;83.43
65378;SHT31;51982;51.042;13.806;2023-03-11T08:48:32;4.29;82.63
65378;SHT31;51982;51.042;13.806;2023-03-11T08:50:57;4.18;82.89
65378;SHT31;51982;51.042;13.806;2023-03-11T08:53:23;4.34;84.15
65378;SHT31;51982;51.042;13.806;2023-03-11T08:55:48;4.40;84.16
65378;SHT31;51982;51.042;13.806;2023-03-11T08:58:14;4.30;83.59
65378;SHT31;51982;51.042;13.806;2023-03-11T09:00:39;4.34;83.17
65378;SHT31;51982;51.042;13.806;2023-03-11T09:03:04;4.53;83.34
65378;SHT31;51982;51.042;13.806;2023-03-11T09:05:29;4.62;82.44
65378;SHT31;51982;51.042;13.806;2023-03-11T09:07:54;4.60;81.71
65378;SHT31;51982;51.042;13.806;2023-03-11T09:10:20;4.71;81.59
65378;SHT31;51982;51.042;13.806;2023-03-11T09:12:45;4.69;81.18
65378;SHT31;51982;51.042;13.806;2023-03-11T09:15:10;4.57;81.57
65378;SHT31;51982;51.042;13.806;2023-03-11T09:17:35;4.54;82.01
65378;SHT31;51982;51.042;13.806;2023-03-11T09:20:01;4.23;81.81
65378;SHT31;51982;51.042;13.806;2023-03-11T09:22:26;4.38;83.29
65378;SHT31;51982;51.042;13.806;2023-03-11T09:24:52;4.23;83.86
65378;SHT31;51982;51.042;13.806;2023-03-11T09:27:17;4.34;84.47
65378;SHT31;51982;51.042;13.806;2023-03-11T09:29:42;4.43;83.98
65378;SHT31;51982;51.042;13.806;2023-03-11T09:32:09;4.37;83.50
65378;SHT31;51982;51.042;13.806;2023-03-11T09:34:36;4.21;84.01
65378;SHT31;51982;51.042;13.806;2023-03-11T09:37:01;4.48;84.43
65378;SHT31;51982;51.042;13.806;2023-03-11T09:39:26;4.45;84.53
65378;SHT31;51982;51.042;13.806;2023-03-11T09:41:59;4.37;84.17
65378;SHT31;51982;51.042;13.806;2023-03-11T09:44:33;4.48;84.26
65378;SHT31;51982;51.042;13.806;2023-03-11T09:50:28;4.43;84.33
65378;SHT31;51982;51.042;13.806;2023-03-11T09:58:14;4.57;84.58
65378;SHT31;51982;51.042;13.806;2023-03-11T10:00:41;4.64;84.17
65378;SHT31;51982;51.042;13.806;2023-03-11T10:03:12;4.45;84.64
65378;SHT31;51982;51.042;13.806;2023-03-11T10:05:38;4.55;84.33
65378;SHT31;51982;51.042;13.806;2023-03-11T10:08:51;4.61;83.89
65378;SHT31;51982;51.042;13.806;2023-03-11T10:10:56;4.48;83.09
65378;SHT31;51982;51.042;13.806;2023-03-11T10:13:29;4.43;82.70
65378;SHT31;51982;51.042;13.806;2023-03-11T10:16:00;4.68;82.84
65378;SHT31;51982;51.042;13.806;2023-03-11T10:26:32;4.62;81.48
65378;SHT31;51982;51.042;13.806;2023-03-11T10:29:06;4.68;80.93
65378;SHT31;51982;51.042;13.806;2023-03-11T10:31:39;4.93;80.83
65378;SHT31;51982;51.042;13.806;2023-03-11T10:36:54;5.20;79.67
65378;SHT31;51982;51.042;13.806;2023-03-11T10:39:21;5.44;80.00
65378;SHT31;51982;51.042;13.806;2023-03-11T10:41:51;5.33;78.35
65378;SHT31;51982;51.042;13.806;2023-03-11T10:44:31;5.64;78.74
65378;SHT31;51982;51.042;13.806;2023-03-11T10:46:57;5.28;77.76
65378;SHT31;51982;51.042;13.806;2023-03-11T10:49:23;5.23;78.34
65378;SHT31;51982;51.042;13.806;2023-03-11T10:51:49;5.13;78.18
65378;SHT31;51982;51.042;13.806;2023-03-11T10:56:47;5.54;77.82
65378;SHT31;51982;51.042;13.806;2023-03-11T10:59:24;5.67;77.34
65378;SHT31;51982;51.042;13.806;2023-03-11T11:02:00;5.59;77.18
65378;SHT31;51982;51.042;13.806;2023-03-11T11:04:27;5.33;76.97
65378;SHT31;51982;51.042;13.806;2023-03-11T11:06:52;5.28;76.82
65378;SHT31;51982;51.042;13.806;2023-03-11T11:09:19;5.16;77.41
65378;SHT31;51982;51.042;13.806;2023-03-11T11:14:40;5.23;78.95
65378;SHT31;51982;51.042;13.806;2023-03-11T11:17:12;4.98;80.99
65378;SHT31;51982;51.042;13.806;2023-03-11T11:19:42;5.28;81.94
65378;SHT31;51982;51.042;13.806;2023-03-11T11:22:09;5.13;80.06
65378;SHT31;51982;51.042;13.806;2023-03-11T11:24:44;5.23;81.19
65378;SHT31;51982;51.042;13.806;2023-03-11T11:27:24;5.28;81.17
65378;SHT31;51982;51.042;13.806;2023-03-11T11:30:13;5.40;81.14
65378;SHT31;51982;51.042;13.806;2023-03-11T11:32:41;5.53;79.84
65378;SHT31;51982;51.042;13.806;2023-03-11T11:35:15;5.71;79.50
65378;SHT31;51982;51.042;13.806;2023-03-11T11:37:41;5.90;78.95
65378;SHT31;51982;51.042;13.806;2023-03-11T11:42:39;5.91;77.71
65378;SHT31;51982;51.042;13.806;2023-03-11T11:45:13;5.98;77.77
65378;SHT31;51982;51.042;13.806;2023-03-11T11:47:40;6.28;77.76
65378;SHT31;51982;51.042;13.806;2023-03-11T11:52:55;6.59;75.96
65378;SHT31;51982;51.042;13.806;2023-03-11T11:55:23;6.66;74.84
65378;SHT31;51982;51.042;13.806;2023-03-11T11:57:49;6.66;74.78
65378;SHT31;51982;51.042;13.806;2023-03-11T12:00:22;6.69;74.60
65378;SHT31;51982;51.042;13.806;2023-03-11T12:03:07;6.50;75.41
65378;SHT31;51982;51.042;13.806;2023-03-11T12:08:16;6.10;75.21
65378;SHT31;51982;51.042;13.806;2023-03-11T12:10:52;5.95;75.55
65378;SHT31;51982;51.042;13.806;2023-03-11T12:21:07;5.44;74.89
65378;SHT31;51982;51.042;13.806;2023-03-11T12:23:44;5.43;74.56
65378;SHT31;51982;51.042;13.806;2023-03-11T12:26:18;5.50;74.88
65378;SHT31;51982;51.042;13.806;2023-03-11T12:28:49;5.35;76.06
65378;SHT31;51982;51.042;13.806;2023-03-11T12:31:18;5.39;75.98
65378;SHT31;51982;51.042;13.806;2023-03-11T12:33:48;5.32;76.59
65378;SHT31;51982;51.042;13.806;2023-03-11T12:36:28;5.49;75.74
65378;SHT31;51982;51.042;13.806;2023-03-11T12:38:53;5.53;74.82
65378;SHT31;51982;51.042;13.806;2023-03-11T12:44:01;5.70;72.82
65378;SHT31;51982;51.042;13.806;2023-03-11T12:49:11;5.33;74.39
65378;SHT31;51982;51.042;13.806;2023-03-11T12:51:38;5.25;75.83
65378;SHT31;51982;51.042;13.806;2023-03-11T12:57:00;5.11;78.18
65378;SHT31;51982;51.042;13.806;2023-03-11T12:59:36;5.02;78.88
65378;SHT31;51982;51.042;13.806;2023-03-11T13:04:56;5.13;77.25
65378;SHT31;51982;51.042;13.806;2023-03-11T13:12:51;5.20;80.02
65378;SHT31;51982;51.042;13.806;2023-03-11T13:17:42;5.33;80.40
65378;SHT31;51982;51.042;13.806;2023-03-11T13:30:51;6.38;75.06
65378;SHT31;51982;51.042;13.806;2023-03-11T13:33:23;6.53;75.37
65378;SHT31;51982;51.042;13.806;2023-03-11T13:38:33;6.72;73.42
65378;SHT31;51982;51.042;13.806;2023-03-11T13:41:01;6.57;73.06
65378;SHT31;51982;51.042;13.806;2023-03-11T13:43:27;6.41;73.80
65378;SHT31;51982;51.042;13.806;2023-03-11T13:46:07;6.55;74.19
65378;SHT31;51982;51.042;13.806;2023-03-11T13:48:38;6.36;73.92
65378;SHT31;51982;51.042;13.806;2023-03-11T13:51:26;6.18;74.43
65378;SHT31;51982;51.042;13.806;2023-03-11T13:53:58;6.25;74.76
65378;SHT31;51982;51.042;13.806;2023-03-11T13:56:26;6.07;74.36
65378;SHT31;51982;51.042;13.806;2023-03-11T13:58:52;5.89;74.91
65378;SHT31;51982;51.042;13.806;2023-03-11T14:01:17;5.70;74.63
65378;SHT31;51982;51.042;13.806;2023-03-11T14:03:43;5.83;75.39
65378;SHT31;51982;51.042;13.806;2023-03-11T14:06:13;5.71;74.37
65378;SHT31;51982;51.042;13.806;2023-03-11T14:08:39;5.91;74.50
65378;SHT31;51982;51.042;13.806;2023-03-11T14:13:39;5.71;73.79
65378;SHT31;51982;51.042;13.806;2023-03-11T14:16:06;5.75;74.05
65378;SHT31;51982;51.042;13.806;2023-03-11T14:20:57;5.57;73.84
65378;SHT31;51982;51.042;13.806;2023-03-11T14:23:24;5.75;73.29
65378;SHT31;51982;51.042;13.806;2023-03-11T14:25:58;5.86;73.15
65378;SHT31;51982;51.042;13.806;2023-03-11T14:28:31;5.87;72.23
65378;SHT31;51982;51.042;13.806;2023-03-11T14:30:58;5.81;72.07
65378;SHT31;51982;51.042;13.806;2023-03-11T14:33:23;5.73;71.99
65378;SHT31;51982;51.042;13.806;2023-03-11T14:35:53;5.87;72.45
65378;SHT31;51982;51.042;13.806;2023-03-11T14:38:19;5.81;72.25
65378;SHT31;51982;51.042;13.806;2023-03-11T14:40:44;6.10;71.76
65378;SHT31;51982;51.042;13.806;2023-03-11T14:43:13;6.18;71.55
65378;SHT31;51982;51.042;13.806;2023-03-11T14:45:39;6.18;71.16
65378;SHT31;51982;51.042;13.806;2023-03-11T14:48:08;6.04;70.89
65378;SHT31;51982;51.042;13.806;2023-03-11T14:50:34;5.91;70.89
65378;SHT31;51982;51.042;13.806;2023-03-11T14:56:05;5.91;72.20
65378;SHT31;51982;51.042;13.806;2023-03-11T14:58:39;5.89;72.14
65378;SHT31;51982;51.042;13.806;2023-03-11T15:01:08;5.73;72.49
65378;SHT31;51982;51.042;13.806;2023-03-11T15:03:35;5.84;73.05
65378;SHT31;51982;51.042;13.806;2023-03-11T15:08:30;5.98;73.57
65378;SHT31;51982;51.042;13.806;2023-03-11T15:13:32;5.67;71.92
65378;SHT31;51982;51.042;13.806;2023-03-11T15:15:57;5.84;72.88
65378;SHT31;51982;51.042;13.806;2023-03-11T15:18:24;5.71;72.17
65378;SHT31;51982;51.042;13.806;2023-03-11T15:21:00;5.67;72.57
65378;SHT31;51982;51.042;13.806;2023-03-11T15:23:26;5.67;72.12
65378;SHT31;51982;51.042;13.806;2023-03-11T15:25:52;5.66;71.85
65378;SHT31;51982;51.042;13.806;2023-03-11T15:30:45;5.67;72.28
65378;SHT31;51982;51.042;13.806;2023-03-11T15:33:23;5.69;71.93
65378;SHT31;51982;51.042;13.806;2023-03-11T15:35:55;5.75;71.54
65378;SHT31;51982;51.042;13.806;2023-03-11T15:38:21;5.59;70.76
65378;SHT31;51982;51.042;13.806;2023-03-11T15:40:59;5.61;71.13
65378;SHT31;51982;51.042;13.806;2023-03-11T15:43:28;5.67;70.12
65378;SHT31;51982;51.042;13.806;2023-03-11T15:45:55;5.74;70.88
65378;SHT31;51982;51.042;13.806;2023-03-11T15:48:20;5.64;69.87
65378;SHT31;51982;51.042;13.806;2023-03-11T15:50:52;5.70;69.35
65378;SHT31;51982;51.042;13.806;2023-03-11T15:53:18;5.69;69.01
65378;SHT31;51982;51.042;13.806;2023-03-11T15:55:44;5.77;69.29
65378;SHT31;51982;51.042;13.806;2023-03-11T15:58:10;5.75;68.94
65378;SHT31;51982;51.042;13.806;2023-03-11T16:00:35;5.66;69.09
65378;SHT31;51982;51.042;13.806;2023-03-11T16:03:01;5.67;69.53
65378;SHT31;51982;51.042;13.806;2023-03-11T16:05:26;5.66;69.74
65378;SHT31;51982;51.042;13.806;2023-03-11T16:07:54;5.56;69.99
65378;SHT31;51982;51.042;13.806;2023-03-11T16:10:20;5.46;70.60
65378;SHT31;51982;51.042;13.806;2023-03-11T16:12:45;5.60;71.04
65378;SHT31;51982;51.042;13.806;2023-03-11T16:15:18;5.44;70.31
65378;SHT31;51982;51.042;13.806;2023-03-11T16:17:46;5.63;71.17
65378;SHT31;51982;51.042;13.806;2023-03-11T16:20:11;5.59;71.08
65378;SHT31;51982;51.042;13.806;2023-03-11T16:22:36;5.57;70.67
65378;SHT31;51982;51.042;13.806;2023-03-11T16:25:02;5.47;70.50
65378;SHT31;51982;51.042;13.806;2023-03-11T16:27:27;5.42;70.54
65378;SHT31;51982;51.042;13.806;2023-03-11T16:29:53;5.35;70.82
65378;SHT31;51982;51.042;13.806;2023-03-11T16:32:18;5.43;71.33
65378;SHT31;51982;51.042;13.806;2023-03-11T16:34:43;5.47;70.90
65378;SHT31;51982;51.042;13.806;2023-03-11T16:37:09;5.43;71.16
65378;SHT31;51982;51.042;13.806;2023-03-11T16:39:38;5.39;71.38
65378;SHT31;51982;51.042;13.806;2023-03-11T16:42:03;5.49;71.99
65378;SHT31;51982;51.042;13.806;2023-03-11T16:44:28;5.50;71.55
65378;SHT31;51982;51.042;13.806;2023-03-11T16:46:53;5.51;71.84
65378;SHT31;51982;51.042;13.806;2023-03-11T16:49:19;5.56;72.11
65378;SHT31;51982;51.042;13.806;2023-03-11T16:51:44;5.54;71.79
65378;SHT31;51982;51.042;13.806;2023-03-11T16:54:09;5.54;72.54
65378;SHT31;51982;51.042;13.806;2023-03-11T16:56:34;5.44;71.86
65378;SHT31;51982;51.042;13.806;2023-03-11T16:58:59;5.30;72.09
65378;SHT31;51982;51.042;13.806;2023-03-11T17:01:25;5.30;72.96
65378;SHT31;51982;51.042;13.806;2023-03-11T17:03:50;5.15;72.57
65378;SHT31;51982;51.042;13.806;2023-03-11T17:06:17;5.11;72.85